Boras — TCGU — position and weather

sailwx.info

Track history (hours):
 
Tides and Currents Weather Stations Pressure Air Temp Water Temp Dewpoint Dewpoint Depression Visibility Wind Speed Wind Dir Waves Ship Positions

Boras

Last reported at 2015-Mar-18 18:06 UTC. Time now 2015-Mar-31 02:04 UTC.
Position N 36°48' E 026°07'.
Warning: this ship's position is 12 days out of date.

Length 103 m; draft 4.3 m.

Type: Cargo ship. MMSI: 271000352.

Date/timePositionNaut miles runAvg speedWind from/ knotsBaromVisibWave heightAir tempDewpointWater temp
2015-Mar-18 18:06N 36°48' E 026°07'5 8.3
2015-Mar-18 17:33N 36°47' E 026°01'8 7.8
2015-Mar-18 16:33N 36°44' E 025°52'8 8.2
2015-Mar-18 15:33N 36°42' E 025°42'8 7.9
2015-Mar-18 14:33N 36°40' E 025°33'17 8.3
2015-Mar-18 12:29N 36°35' E 025°12'10 8.4
2015-Mar-18 11:16N 36°33' E 024°60'6 8.0
2015-Mar-18 10:30N 36°32' E 024°52'87 4.8
2015-Mar-17 16:33N 37°39' E 023°43'9 9.2
2015-Mar-17 15:33N 37°47' E 023°38'9 9.3
2015-Mar-17 14:33N 37°57' E 023°36'6 1.2
2015-Mar-17 09:30N 38°02' E 023°32'0 0.0
2015-Mar-17 05:32N 38°02' E 023°32'0 0.0
2015-Mar-17 04:32N 38°02' E 023°32'0 0.0
2015-Mar-17 03:31N 38°02' E 023°32'0 0.0
2015-Mar-17 02:23N 38°02' E 023°32'0 0.0
2015-Mar-17 01:04N 38°02' E 023°32'0 0.0
2015-Mar-17 00:28N 38°02' E 023°32'0 0.0
2015-Mar-16 21:08N 38°02' E 023°32'0 0.0
2015-Mar-16 20:21N 38°02' E 023°32'0 0.0
2015-Mar-16 19:32N 38°02' E 023°32'0 0.0
2015-Mar-16 18:21N 38°02' E 023°32'0 0.0
2015-Mar-16 17:32N 38°02' E 023°32'0 0.0
2015-Mar-16 15:08N 38°02' E 023°32'0 0.0
2015-Mar-16 14:05N 38°02' E 023°32'0 0.0
2015-Mar-16 12:20N 38°02' E 023°32'0 0.0
2015-Mar-16 11:20N 38°02' E 023°32'0 0.0
2015-Mar-16 07:09N 38°02' E 023°32'0 0.0
2015-Mar-14 14:31N 38°02' E 023°32'0 0.0
2015-Mar-14 12:14N 38°02' E 023°32'0 0.0
2015-Mar-14 10:21N 38°02' E 023°32'0 0.0
2015-Mar-14 09:11N 38°02' E 023°32'0 0.0
2015-Mar-14 08:31N 38°02' E 023°32'0 0.0
2015-Mar-14 07:06N 38°02' E 023°32'0 0.0
2015-Mar-14 06:25N 38°02' E 023°32'0 0.0
2015-Mar-14 04:31N 38°02' E 023°32'0 0.0
2015-Mar-14 03:17N 38°02' E 023°32'0 0.0
2015-Mar-14 02:21N 38°02' E 023°32'0 0.0
2015-Mar-14 01:30N 38°02' E 023°32'0 0.0
2015-Mar-14 00:33N 38°02' E 023°32'0 0.0
2015-Mar-13 23:21N 38°02' E 023°32'0 0.0
2015-Mar-13 22:20N 38°02' E 023°32'0 0.0
2015-Mar-13 21:32N 38°02' E 023°32'0 0.0
2015-Mar-13 19:27N 38°02' E 023°32'0 0.0
2015-Mar-13 18:30N 38°02' E 023°32'0 0.0
2015-Mar-13 17:28N 38°02' E 023°32'0 0.0
2015-Mar-13 16:30N 38°02' E 023°32'0 0.0
2015-Mar-13 15:29N 38°02' E 023°32'0 0.0
2015-Mar-13 14:27N 38°02' E 023°32'0 0.0
2015-Mar-13 13:24N 38°02' E 023°32'0 0.0
2015-Mar-13 10:25N 38°02' E 023°32'0 0.0
2015-Mar-13 09:14N 38°02' E 023°32'0 0.0
2015-Mar-13 07:29N 38°02' E 023°32'0 0.0
2015-Mar-13 03:15N 38°02' E 023°32'0 0.0
2015-Mar-13 00:21N 38°02' E 023°32'0 0.0
2015-Mar-12 19:14N 38°02' E 023°32'0 0.0
2015-Mar-12 18:26N 38°02' E 023°32'0 0.0
2015-Mar-12 17:31N 38°02' E 023°32'0 0.0
2015-Mar-12 16:23N 38°02' E 023°32'0 0.1
2015-Mar-12 15:33N 38°02' E 023°32'6 6.3
2015-Mar-12 14:33N 37°56' E 023°36'8 7.9
2015-Mar-12 13:33N 37°49' E 023°40'9 8.6
2015-Mar-12 12:33N 37°42' E 023°45'  
Track history (hours):
 
Tides and Currents Weather Stations Pressure Air Temp Water Temp Dewpoint Dewpoint Depression Visibility Wind Speed Wind Dir Waves Ship Positions

Boras

Last reported at 2015-Mar-18 18:06 UTC. Time now 2015-Mar-31 02:04 UTC.
Position N 36°48' E 026°07'.
Warning: this ship's position is 12 days out of date.

Length 103 m; draft 4.3 m.

Type: Cargo ship. MMSI: 271000352.

Date/timePositionNaut miles runAvg speedWind from/ knotsBaromVisibWave heightAir tempDewpointWater temp
2015-Mar-18 18:06N 36°48' E 026°07'5 8.3
2015-Mar-18 17:33N 36°47' E 026°01'8 7.8
2015-Mar-18 16:33N 36°44' E 025°52'8 8.2
2015-Mar-18 15:33N 36°42' E 025°42'8 7.9
2015-Mar-18 14:33N 36°40' E 025°33'17 8.3
2015-Mar-18 12:29N 36°35' E 025°12'10 8.4
2015-Mar-18 11:16N 36°33' E 024°60'6 8.0
2015-Mar-18 10:30N 36°32' E 024°52'87 4.8
2015-Mar-17 16:33N 37°39' E 023°43'9 9.2
2015-Mar-17 15:33N 37°47' E 023°38'9 9.3
2015-Mar-17 14:33N 37°57' E 023°36'6 1.2
2015-Mar-17 09:30N 38°02' E 023°32'0 0.0
2015-Mar-17 05:32N 38°02' E 023°32'0 0.0
2015-Mar-17 04:32N 38°02' E 023°32'0 0.0
2015-Mar-17 03:31N 38°02' E 023°32'0 0.0
2015-Mar-17 02:23N 38°02' E 023°32'0 0.0
2015-Mar-17 01:04N 38°02' E 023°32'0 0.0
2015-Mar-17 00:28N 38°02' E 023°32'0 0.0
2015-Mar-16 21:08N 38°02' E 023°32'0 0.0
2015-Mar-16 20:21N 38°02' E 023°32'0 0.0
2015-Mar-16 19:32N 38°02' E 023°32'0 0.0
2015-Mar-16 18:21N 38°02' E 023°32'0 0.0
2015-Mar-16 17:32N 38°02' E 023°32'0 0.0
2015-Mar-16 15:08N 38°02' E 023°32'0 0.0
2015-Mar-16 14:05N 38°02' E 023°32'0 0.0
2015-Mar-16 12:20N 38°02' E 023°32'0 0.0
2015-Mar-16 11:20N 38°02' E 023°32'0 0.0
2015-Mar-16 07:09N 38°02' E 023°32'0 0.0
2015-Mar-14 14:31N 38°02' E 023°32'0 0.0
2015-Mar-14 12:14N 38°02' E 023°32'0 0.0
2015-Mar-14 10:21N 38°02' E 023°32'0 0.0
2015-Mar-14 09:11N 38°02' E 023°32'0 0.0
2015-Mar-14 08:31N 38°02' E 023°32'0 0.0
2015-Mar-14 07:06N 38°02' E 023°32'0 0.0
2015-Mar-14 06:25N 38°02' E 023°32'0 0.0
2015-Mar-14 04:31N 38°02' E 023°32'0 0.0
2015-Mar-14 03:17N 38°02' E 023°32'0 0.0
2015-Mar-14 02:21N 38°02' E 023°32'0 0.0
2015-Mar-14 01:30N 38°02' E 023°32'0 0.0
2015-Mar-14 00:33N 38°02' E 023°32'0 0.0
2015-Mar-13 23:21N 38°02' E 023°32'0 0.0
2015-Mar-13 22:20N 38°02' E 023°32'0 0.0
2015-Mar-13 21:32N 38°02' E 023°32'0 0.0
2015-Mar-13 19:27N 38°02' E 023°32'0 0.0
2015-Mar-13 18:30N 38°02' E 023°32'0 0.0
2015-Mar-13 17:28N 38°02' E 023°32'0 0.0
2015-Mar-13 16:30N 38°02' E 023°32'0 0.0
2015-Mar-13 15:29N 38°02' E 023°32'0 0.0
2015-Mar-13 14:27N 38°02' E 023°32'0 0.0
2015-Mar-13 13:24N 38°02' E 023°32'0 0.0
2015-Mar-13 10:25N 38°02' E 023°32'0 0.0
2015-Mar-13 09:14N 38°02' E 023°32'0 0.0
2015-Mar-13 07:29N 38°02' E 023°32'0 0.0
2015-Mar-13 03:15N 38°02' E 023°32'0 0.0
2015-Mar-13 00:21N 38°02' E 023°32'0 0.0
2015-Mar-12 19:14N 38°02' E 023°32'0 0.0
2015-Mar-12 18:26N 38°02' E 023°32'0 0.0
2015-Mar-12 17:31N 38°02' E 023°32'0 0.0
2015-Mar-12 16:23N 38°02' E 023°32'0 0.1
2015-Mar-12 15:33N 38°02' E 023°32'6 6.3
2015-Mar-12 14:33N 37°56' E 023°36'8 7.9
2015-Mar-12 13:33N 37°49' E 023°40'9 8.6
2015-Mar-12 12:33N 37°42' E 023°45'  

Dump ship's entire track history